Padre Island National Seasho, Texas
Current Conditions -  °F | °C
As of 3:56 AM on Sunday 26 Oct 2014 (Local Time) from KNGP Reporting Station
Clear Clear  
Wind Chill: 68°   Ceiling: Unl
Heat Index: 68°   Visibility: 10mi
Dew Point: 67°   Wind: 5mph
Humidity: 96%   Direction: 230°SW
Pressure: 30.04"   Gusts: NA
Location:  27.6599°N, 97.2972°W
Report Text: KNGP 260856Z AUTO 23004KT 10SM CLR 20/19 A3004 RMK AO2 SLP171 T02000194 58011
Loading
Personal Weather Stations






























Interactive Weather Map
Tropical Storm Tracking
New forecast layout! Learn more

10-Day Weather Forecast

Advertisements
Track Severe Weather on mobile